sensor_id;sensor_type;location;lat;lon;timestamp;P1;durP1;ratioP1;P2;durP2;ratioP2
54539;SDS011;40438;52.992;18.604;2024-01-25T00:00:55;7.57;;;1.25;;
54539;SDS011;40438;52.992;18.604;2024-01-25T00:03:20;3.55;;;0.98;;
54539;SDS011;40438;52.992;18.604;2024-01-25T00:05:46;9.35;;;1.33;;
54539;SDS011;40438;52.992;18.604;2024-01-25T00:08:13;1.40;;;0.85;;
54539;SDS011;40438;52.992;18.604;2024-01-25T00:10:39;4.43;;;0.85;;
54539;SDS011;40438;52.992;18.604;2024-01-25T00:13:06;1.77;;;0.55;;
54539;SDS011;40438;52.992;18.604;2024-01-25T00:15:32;3.97;;;0.90;;
54539;SDS011;40438;52.992;18.604;2024-01-25T00:17:57;12.35;;;1.40;;
54539;SDS011;40438;52.992;18.604;2024-01-25T00:20:23;8.20;;;1.08;;
54539;SDS011;40438;52.992;18.604;2024-01-25T00:22:49;4.57;;;1.25;;
54539;SDS011;40438;52.992;18.604;2024-01-25T00:25:15;2.70;;;1.25;;
54539;SDS011;40438;52.992;18.604;2024-01-25T00:27:40;1.95;;;0.65;;
54539;SDS011;40438;52.992;18.604;2024-01-25T00:30:08;4.80;;;1.02;;
54539;SDS011;40438;52.992;18.604;2024-01-25T00:32:35;5.82;;;1.10;;
54539;SDS011;40438;52.992;18.604;2024-01-25T00:35:01;5.00;;;1.15;;
54539;SDS011;40438;52.992;18.604;2024-01-25T00:37:27;3.08;;;0.70;;
54539;SDS011;40438;52.992;18.604;2024-01-25T00:39:54;3.00;;;0.80;;
54539;SDS011;40438;52.992;18.604;2024-01-25T00:42:21;8.45;;;1.02;;
54539;SDS011;40438;52.992;18.604;2024-01-25T00:44:48;3.70;;;1.10;;
54539;SDS011;40438;52.992;18.604;2024-01-25T00:47:16;2.58;;;0.88;;
54539;SDS011;40438;52.992;18.604;2024-01-25T00:49:42;3.95;;;1.77;;
54539;SDS011;40438;52.992;18.604;2024-01-25T00:52:09;8.95;;;1.27;;
54539;SDS011;40438;52.992;18.604;2024-01-25T00:54:36;6.57;;;1.35;;
54539;SDS011;40438;52.992;18.604;2024-01-25T00:57:02;8.80;;;1.23;;
54539;SDS011;40438;52.992;18.604;2024-01-25T00:59:28;4.75;;;1.48;;
54539;SDS011;40438;52.992;18.604;2024-01-25T01:01:55;5.63;;;1.02;;
54539;SDS011;40438;52.992;18.604;2024-01-25T01:04:24;6.05;;;1.38;;
54539;SDS011;40438;52.992;18.604;2024-01-25T01:06:50;8.80;;;1.08;;
54539;SDS011;40438;52.992;18.604;2024-01-25T01:09:16;9.48;;;1.60;;
54539;SDS011;40438;52.992;18.604;2024-01-25T01:11:42;6.10;;;1.30;;
54539;SDS011;40438;52.992;18.604;2024-01-25T01:14:08;11.18;;;1.40;;
54539;SDS011;40438;52.992;18.604;2024-01-25T01:16:33;6.82;;;1.20;;
54539;SDS011;40438;52.992;18.604;2024-01-25T01:18:59;6.93;;;0.90;;
54539;SDS011;40438;52.992;18.604;2024-01-25T01:21:26;5.78;;;1.40;;
54539;SDS011;40438;52.992;18.604;2024-01-25T01:23:52;10.93;;;1.15;;
54539;SDS011;40438;52.992;18.604;2024-01-25T01:26:18;10.20;;;1.63;;
54539;SDS011;40438;52.992;18.604;2024-01-25T01:28:44;4.30;;;0.80;;
54539;SDS011;40438;52.992;18.604;2024-01-25T01:31:09;9.07;;;1.88;;
54539;SDS011;40438;52.992;18.604;2024-01-25T01:33:35;3.90;;;0.85;;
54539;SDS011;40438;52.992;18.604;2024-01-25T01:36:01;6.55;;;1.10;;
54539;SDS011;40438;52.992;18.604;2024-01-25T01:38:28;7.05;;;1.02;;
54539;SDS011;40438;52.992;18.604;2024-01-25T01:40:54;8.13;;;1.10;;
54539;SDS011;40438;52.992;18.604;2024-01-25T01:43:20;2.83;;;0.65;;
54539;SDS011;40438;52.992;18.604;2024-01-25T01:45:47;7.00;;;1.00;;
54539;SDS011;40438;52.992;18.604;2024-01-25T01:48:12;11.77;;;1.05;;
54539;SDS011;40438;52.992;18.604;2024-01-25T01:50:38;3.75;;;1.00;;
54539;SDS011;40438;52.992;18.604;2024-01-25T01:53:04;5.72;;;1.00;;
54539;SDS011;40438;52.992;18.604;2024-01-25T01:55:32;6.45;;;1.27;;
54539;SDS011;40438;52.992;18.604;2024-01-25T01:57:58;3.63;;;0.82;;
54539;SDS011;40438;52.992;18.604;2024-01-25T02:00:26;7.05;;;1.10;;
54539;SDS011;40438;52.992;18.604;2024-01-25T02:02:52;5.00;;;1.40;;
54539;SDS011;40438;52.992;18.604;2024-01-25T02:05:18;6.28;;;1.48;;
54539;SDS011;40438;52.992;18.604;2024-01-25T02:07:44;5.75;;;1.30;;
54539;SDS011;40438;52.992;18.604;2024-01-25T02:10:11;10.63;;;1.38;;
54539;SDS011;40438;52.992;18.604;2024-01-25T02:12:38;6.47;;;1.33;;
54539;SDS011;40438;52.992;18.604;2024-01-25T02:15:04;2.63;;;0.90;;
54539;SDS011;40438;52.992;18.604;2024-01-25T02:17:30;4.75;;;1.08;;
54539;SDS011;40438;52.992;18.604;2024-01-25T02:19:56;9.48;;;1.52;;
54539;SDS011;40438;52.992;18.604;2024-01-25T02:22:23;9.90;;;1.45;;
54539;SDS011;40438;52.992;18.604;2024-01-25T02:24:49;3.58;;;1.20;;
54539;SDS011;40438;52.992;18.604;2024-01-25T02:27:15;6.55;;;1.23;;
54539;SDS011;40438;52.992;18.604;2024-01-25T02:29:41;13.63;;;1.58;;
54539;SDS011;40438;52.992;18.604;2024-01-25T02:32:06;6.38;;;1.60;;
54539;SDS011;40438;52.992;18.604;2024-01-25T02:34:32;7.50;;;1.60;;
54539;SDS011;40438;52.992;18.604;2024-01-25T02:36:58;9.80;;;1.38;;
54539;SDS011;40438;52.992;18.604;2024-01-25T02:39:25;5.43;;;1.10;;
54539;SDS011;40438;52.992;18.604;2024-01-25T02:41:51;6.13;;;1.80;;
54539;SDS011;40438;52.992;18.604;2024-01-25T02:44:17;7.93;;;2.35;;
54539;SDS011;40438;52.992;18.604;2024-01-25T02:46:43;8.73;;;1.52;;
54539;SDS011;40438;52.992;18.604;2024-01-25T02:49:08;11.13;;;1.05;;
54539;SDS011;40438;52.992;18.604;2024-01-25T02:51:34;4.55;;;1.08;;
54539;SDS011;40438;52.992;18.604;2024-01-25T02:54:00;3.83;;;1.35;;
54539;SDS011;40438;52.992;18.604;2024-01-25T02:56:27;7.63;;;1.90;;
54539;SDS011;40438;52.992;18.604;2024-01-25T02:58:53;5.57;;;1.20;;
54539;SDS011;40438;52.992;18.604;2024-01-25T03:01:19;17.92;;;2.00;;
54539;SDS011;40438;52.992;18.604;2024-01-25T03:03:45;6.28;;;1.70;;
54539;SDS011;40438;52.992;18.604;2024-01-25T03:06:10;7.40;;;1.15;;
54539;SDS011;40438;52.992;18.604;2024-01-25T03:08:36;10.13;;;1.63;;
54539;SDS011;40438;52.992;18.604;2024-01-25T03:11:02;5.28;;;0.90;;
54539;SDS011;40438;52.992;18.604;2024-01-25T03:13:29;7.45;;;0.90;;
54539;SDS011;40438;52.992;18.604;2024-01-25T03:15:55;8.43;;;1.35;;
54539;SDS011;40438;52.992;18.604;2024-01-25T03:18:21;3.80;;;0.85;;
54539;SDS011;40438;52.992;18.604;2024-01-25T03:20:46;8.23;;;0.98;;
54539;SDS011;40438;52.992;18.604;2024-01-25T03:23:12;6.75;;;1.13;;
54539;SDS011;40438;52.992;18.604;2024-01-25T03:25:38;11.20;;;1.98;;
54539;SDS011;40438;52.992;18.604;2024-01-25T03:28:04;7.95;;;1.10;;
54539;SDS011;40438;52.992;18.604;2024-01-25T03:30:32;8.50;;;1.55;;
54539;SDS011;40438;52.992;18.604;2024-01-25T03:32:58;11.32;;;1.50;;
54539;SDS011;40438;52.992;18.604;2024-01-25T03:35:23;3.55;;;1.13;;
54539;SDS011;40438;52.992;18.604;2024-01-25T03:37:49;7.18;;;1.63;;
54539;SDS011;40438;52.992;18.604;2024-01-25T03:40:15;8.45;;;1.25;;
54539;SDS011;40438;52.992;18.604;2024-01-25T03:42:41;14.18;;;2.55;;
54539;SDS011;40438;52.992;18.604;2024-01-25T03:45:07;8.70;;;2.15;;
54539;SDS011;40438;52.992;18.604;2024-01-25T03:47:34;9.55;;;2.28;;
54539;SDS011;40438;52.992;18.604;2024-01-25T03:50:00;5.75;;;1.63;;
54539;SDS011;40438;52.992;18.604;2024-01-25T03:52:26;2.83;;;0.82;;
54539;SDS011;40438;52.992;18.604;2024-01-25T03:54:51;4.55;;;1.60;;
54539;SDS011;40438;52.992;18.604;2024-01-25T03:57:17;2.78;;;1.48;;
54539;SDS011;40438;52.992;18.604;2024-01-25T03:59:43;2.05;;;0.90;;
54539;SDS011;40438;52.992;18.604;2024-01-25T04:02:09;11.80;;;1.67;;
54539;SDS011;40438;52.992;18.604;2024-01-25T04:04:36;7.40;;;1.33;;
54539;SDS011;40438;52.992;18.604;2024-01-25T04:07:02;6.40;;;1.80;;
54539;SDS011;40438;52.992;18.604;2024-01-25T04:09:28;8.07;;;1.15;;
54539;SDS011;40438;52.992;18.604;2024-01-25T04:11:54;10.10;;;1.13;;
54539;SDS011;40438;52.992;18.604;2024-01-25T04:14:20;7.53;;;1.30;;
54539;SDS011;40438;52.992;18.604;2024-01-25T04:16:45;3.58;;;1.40;;
54539;SDS011;40438;52.992;18.604;2024-01-25T04:19:11;14.18;;;1.45;;
54539;SDS011;40438;52.992;18.604;2024-01-25T04:21:38;5.93;;;1.02;;
54539;SDS011;40438;52.992;18.604;2024-01-25T04:24:04;6.75;;;1.27;;
54539;SDS011;40438;52.992;18.604;2024-01-25T04:26:30;6.10;;;1.92;;
54539;SDS011;40438;52.992;18.604;2024-01-25T04:28:56;1.45;;;0.95;;
54539;SDS011;40438;52.992;18.604;2024-01-25T04:31:23;4.35;;;1.48;;
54539;SDS011;40438;52.992;18.604;2024-01-25T04:33:49;6.13;;;1.17;;
54539;SDS011;40438;52.992;18.604;2024-01-25T04:36:15;4.03;;;1.30;;
54539;SDS011;40438;52.992;18.604;2024-01-25T04:38:42;3.50;;;1.20;;
54539;SDS011;40438;52.992;18.604;2024-01-25T04:41:08;10.98;;;1.23;;
54539;SDS011;40438;52.992;18.604;2024-01-25T04:43:34;7.55;;;1.35;;
54539;SDS011;40438;52.992;18.604;2024-01-25T04:45:59;6.72;;;1.40;;
54539;SDS011;40438;52.992;18.604;2024-01-25T04:48:25;2.17;;;0.85;;
54539;SDS011;40438;52.992;18.604;2024-01-25T04:50:51;3.72;;;0.85;;
54539;SDS011;40438;52.992;18.604;2024-01-25T04:53:17;5.30;;;1.15;;
54539;SDS011;40438;52.992;18.604;2024-01-25T04:55:44;1.98;;;0.68;;
54539;SDS011;40438;52.992;18.604;2024-01-25T04:58:10;7.07;;;0.80;;
54539;SDS011;40438;52.992;18.604;2024-01-25T05:00:35;4.22;;;0.73;;
54539;SDS011;40438;52.992;18.604;2024-01-25T05:03:01;5.03;;;0.70;;
54539;SDS011;40438;52.992;18.604;2024-01-25T05:05:27;4.75;;;0.95;;
54539;SDS011;40438;52.992;18.604;2024-01-25T05:07:53;4.50;;;1.30;;
54539;SDS011;40438;52.992;18.604;2024-01-25T05:10:18;3.97;;;1.30;;
54539;SDS011;40438;52.992;18.604;2024-01-25T05:12:46;2.55;;;0.80;;
54539;SDS011;40438;52.992;18.604;2024-01-25T05:15:11;2.58;;;0.73;;
54539;SDS011;40438;52.992;18.604;2024-01-25T05:17:37;6.00;;;1.00;;
54539;SDS011;40438;52.992;18.604;2024-01-25T05:20:03;7.18;;;0.90;;
54539;SDS011;40438;52.992;18.604;2024-01-25T05:22:30;3.47;;;1.00;;
54539;SDS011;40438;52.992;18.604;2024-01-25T05:24:56;5.60;;;1.30;;
54539;SDS011;40438;52.992;18.604;2024-01-25T05:27:21;2.15;;;0.80;;
54539;SDS011;40438;52.992;18.604;2024-01-25T05:29:50;1.70;;;0.73;;
54539;SDS011;40438;52.992;18.604;2024-01-25T05:32:16;2.85;;;1.10;;
54539;SDS011;40438;52.992;18.604;2024-01-25T05:34:41;5.18;;;0.70;;
54539;SDS011;40438;52.992;18.604;2024-01-25T05:37:07;2.13;;;1.05;;
54539;SDS011;40438;52.992;18.604;2024-01-25T05:39:33;3.92;;;1.35;;
54539;SDS011;40438;52.992;18.604;2024-01-25T05:41:59;8.27;;;1.50;;
54539;SDS011;40438;52.992;18.604;2024-01-25T05:44:24;3.70;;;0.68;;
54539;SDS011;40438;52.992;18.604;2024-01-25T05:46:52;7.47;;;1.45;;
54539;SDS011;40438;52.992;18.604;2024-01-25T05:49:17;4.28;;;1.00;;
54539;SDS011;40438;52.992;18.604;2024-01-25T05:51:43;1.58;;;0.82;;
54539;SDS011;40438;52.992;18.604;2024-01-25T05:54:09;1.67;;;1.13;;
54539;SDS011;40438;52.992;18.604;2024-01-25T05:56:35;2.05;;;1.15;;
54539;SDS011;40438;52.992;18.604;2024-01-25T05:59:00;2.88;;;1.30;;
54539;SDS011;40438;52.992;18.604;2024-01-25T06:01:26;4.20;;;1.45;;
54539;SDS011;40438;52.992;18.604;2024-01-25T06:03:53;7.72;;;1.58;;
54539;SDS011;40438;52.992;18.604;2024-01-25T06:06:19;3.92;;;1.13;;
54539;SDS011;40438;52.992;18.604;2024-01-25T06:08:45;3.75;;;0.90;;
54539;SDS011;40438;52.992;18.604;2024-01-25T06:11:11;3.85;;;1.00;;
54539;SDS011;40438;52.992;18.604;2024-01-25T06:13:36;3.60;;;0.77;;
54539;SDS011;40438;52.992;18.604;2024-01-25T06:16:02;4.72;;;0.80;;
54539;SDS011;40438;52.992;18.604;2024-01-25T06:18:28;1.20;;;0.47;;
54539;SDS011;40438;52.992;18.604;2024-01-25T06:20:56;2.25;;;0.98;;
54539;SDS011;40438;52.992;18.604;2024-01-25T06:23:21;6.63;;;0.60;;
54539;SDS011;40438;52.992;18.604;2024-01-25T06:25:47;2.00;;;0.57;;
54539;SDS011;40438;52.992;18.604;2024-01-25T06:28:13;1.70;;;0.50;;
54539;SDS011;40438;52.992;18.604;2024-01-25T06:30:39;0.70;;;0.50;;
54539;SDS011;40438;52.992;18.604;2024-01-25T06:33:04;3.63;;;0.70;;
54539;SDS011;40438;52.992;18.604;2024-01-25T06:35:30;1.58;;;0.85;;
54539;SDS011;40438;52.992;18.604;2024-01-25T06:37:57;2.97;;;1.10;;
54539;SDS011;40438;52.992;18.604;2024-01-25T06:40:23;2.65;;;0.52;;
54539;SDS011;40438;52.992;18.604;2024-01-25T06:42:49;2.70;;;0.63;;
54539;SDS011;40438;52.992;18.604;2024-01-25T06:45:15;2.05;;;0.90;;
54539;SDS011;40438;52.992;18.604;2024-01-25T06:47:40;3.92;;;1.13;;
54539;SDS011;40438;52.992;18.604;2024-01-25T06:50:07;1.15;;;0.90;;
54539;SDS011;40438;52.992;18.604;2024-01-25T06:52:33;5.28;;;0.52;;
54539;SDS011;40438;52.992;18.604;2024-01-25T06:55:00;1.33;;;0.57;;
54539;SDS011;40438;52.992;18.604;2024-01-25T06:57:26;6.63;;;1.25;;
54539;SDS011;40438;52.992;18.604;2024-01-25T06:59:52;2.03;;;0.57;;
54539;SDS011;40438;52.992;18.604;2024-01-25T07:02:18;0.95;;;0.57;;
54539;SDS011;40438;52.992;18.604;2024-01-25T07:04:43;3.53;;;0.80;;
54539;SDS011;40438;52.992;18.604;2024-01-25T07:07:09;0.32;;;0.30;;
54539;SDS011;40438;52.992;18.604;2024-01-25T07:09:35;0.70;;;0.40;;
54539;SDS011;40438;52.992;18.604;2024-01-25T07:12:02;0.52;;;0.43;;
54539;SDS011;40438;52.992;18.604;2024-01-25T07:14:28;0.50;;;0.30;;
54539;SDS011;40438;52.992;18.604;2024-01-25T07:16:54;2.55;;;0.40;;
54539;SDS011;40438;52.992;18.604;2024-01-25T07:19:20;0.38;;;0.32;;
54539;SDS011;40438;52.992;18.604;2024-01-25T07:21:46;0.40;;;0.30;;
54539;SDS011;40438;52.992;18.604;2024-01-25T07:24:12;0.50;;;0.45;;
54539;SDS011;40438;52.992;18.604;2024-01-25T07:26:37;1.23;;;0.50;;
54539;SDS011;40438;52.992;18.604;2024-01-25T07:29:05;0.77;;;0.40;;
54539;SDS011;40438;52.992;18.604;2024-01-25T07:31:30;1.25;;;0.50;;
54539;SDS011;40438;52.992;18.604;2024-01-25T07:33:56;0.47;;;0.38;;
54539;SDS011;40438;52.992;18.604;2024-01-25T07:36:22;1.45;;;0.57;;
54539;SDS011;40438;52.992;18.604;2024-01-25T07:38:48;1.40;;;0.50;;
54539;SDS011;40438;52.992;18.604;2024-01-25T07:41:14;2.72;;;0.55;;
54539;SDS011;40438;52.992;18.604;2024-01-25T07:43:40;2.30;;;0.47;;
54539;SDS011;40438;52.992;18.604;2024-01-25T07:46:07;0.57;;;0.40;;
54539;SDS011;40438;52.992;18.604;2024-01-25T07:48:34;1.27;;;0.68;;
54539;SDS011;40438;52.992;18.604;2024-01-25T07:50:59;2.50;;;0.70;;
54539;SDS011;40438;52.992;18.604;2024-01-25T07:53:25;1.00;;;0.30;;
54539;SDS011;40438;52.992;18.604;2024-01-25T07:55:51;1.75;;;0.60;;
54539;SDS011;40438;52.992;18.604;2024-01-25T07:58:17;1.48;;;0.50;;
54539;SDS011;40438;52.992;18.604;2024-01-25T08:00:42;0.95;;;0.63;;
54539;SDS011;40438;52.992;18.604;2024-01-25T08:03:10;1.38;;;0.55;;
54539;SDS011;40438;52.992;18.604;2024-01-25T08:05:35;1.48;;;0.60;;
54539;SDS011;40438;52.992;18.604;2024-01-25T08:08:01;1.38;;;0.60;;
54539;SDS011;40438;52.992;18.604;2024-01-25T08:10:27;0.30;;;0.30;;
54539;SDS011;40438;52.992;18.604;2024-01-25T08:12:53;1.90;;;0.45;;
54539;SDS011;40438;52.992;18.604;2024-01-25T08:15:19;1.35;;;0.43;;
54539;SDS011;40438;52.992;18.604;2024-01-25T08:17:44;1.55;;;0.60;;
54539;SDS011;40438;52.992;18.604;2024-01-25T08:20:12;0.30;;;0.30;;
54539;SDS011;40438;52.992;18.604;2024-01-25T08:22:38;1.38;;;0.57;;
54539;SDS011;40438;52.992;18.604;2024-01-25T08:25:04;1.50;;;0.52;;
54539;SDS011;40438;52.992;18.604;2024-01-25T08:27:30;4.20;;;0.70;;
54539;SDS011;40438;52.992;18.604;2024-01-25T08:29:56;0.73;;;0.45;;
54539;SDS011;40438;52.992;18.604;2024-01-25T08:32:22;1.08;;;0.50;;
54539;SDS011;40438;52.992;18.604;2024-01-25T08:34:47;3.75;;;0.50;;
54539;SDS011;40438;52.992;18.604;2024-01-25T08:37:15;5.28;;;0.40;;
54539;SDS011;40438;52.992;18.604;2024-01-25T08:39:40;1.80;;;0.63;;
54539;SDS011;40438;52.992;18.604;2024-01-25T08:42:06;1.95;;;0.70;;
54539;SDS011;40438;52.992;18.604;2024-01-25T08:44:32;3.13;;;0.52;;
54539;SDS011;40438;52.992;18.604;2024-01-25T08:46:58;5.30;;;0.70;;
54539;SDS011;40438;52.992;18.604;2024-01-25T08:49:23;1.95;;;0.40;;
54539;SDS011;40438;52.992;18.604;2024-01-25T08:51:49;1.95;;;0.60;;
54539;SDS011;40438;52.992;18.604;2024-01-25T08:54:16;1.90;;;0.57;;
54539;SDS011;40438;52.992;18.604;2024-01-25T08:56:42;3.72;;;0.77;;
54539;SDS011;40438;52.992;18.604;2024-01-25T08:59:08;3.92;;;0.90;;
54539;SDS011;40438;52.992;18.604;2024-01-25T09:01:34;4.05;;;0.70;;
54539;SDS011;40438;52.992;18.604;2024-01-25T09:03:59;2.75;;;0.45;;
54539;SDS011;40438;52.992;18.604;2024-01-25T09:06:25;3.08;;;0.93;;
54539;SDS011;40438;52.992;18.604;2024-01-25T09:08:51;2.30;;;0.55;;
54539;SDS011;40438;52.992;18.604;2024-01-25T09:11:18;5.18;;;0.82;;
54539;SDS011;40438;52.992;18.604;2024-01-25T09:13:44;5.22;;;0.95;;
54539;SDS011;40438;52.992;18.604;2024-01-25T09:16:10;2.53;;;0.80;;
54539;SDS011;40438;52.992;18.604;2024-01-25T09:18:36;2.78;;;0.80;;
54539;SDS011;40438;52.992;18.604;2024-01-25T09:21:01;4.95;;;0.40;;
54539;SDS011;40438;52.992;18.604;2024-01-25T09:23:27;9.98;;;1.08;;
54539;SDS011;40438;52.992;18.604;2024-01-25T09:25:53;3.67;;;0.80;;
54539;SDS011;40438;52.992;18.604;2024-01-25T09:28:20;8.68;;;1.00;;
54539;SDS011;40438;52.992;18.604;2024-01-25T09:30:46;7.38;;;0.98;;
54539;SDS011;40438;52.992;18.604;2024-01-25T09:33:12;1.75;;;0.63;;
54539;SDS011;40438;52.992;18.604;2024-01-25T09:35:39;2.22;;;1.27;;
54539;SDS011;40438;52.992;18.604;2024-01-25T09:38:04;3.13;;;1.00;;
54539;SDS011;40438;52.992;18.604;2024-01-25T09:40:30;4.97;;;0.80;;
54539;SDS011;40438;52.992;18.604;2024-01-25T09:42:56;2.28;;;0.55;;
54539;SDS011;40438;52.992;18.604;2024-01-25T09:45:24;1.73;;;0.70;;
54539;SDS011;40438;52.992;18.604;2024-01-25T09:47:50;4.40;;;0.70;;
54539;SDS011;40438;52.992;18.604;2024-01-25T09:50:15;3.38;;;0.88;;
54539;SDS011;40438;52.992;18.604;2024-01-25T09:52:42;6.40;;;0.63;;
54539;SDS011;40438;52.992;18.604;2024-01-25T09:55:09;3.85;;;1.33;;
54539;SDS011;40438;52.992;18.604;2024-01-25T09:57:37;2.20;;;0.80;;
54539;SDS011;40438;52.992;18.604;2024-01-25T10:00:03;4.60;;;0.52;;
54539;SDS011;40438;52.992;18.604;2024-01-25T10:02:31;3.13;;;0.70;;
54539;SDS011;40438;52.992;18.604;2024-01-25T10:04:57;3.83;;;0.88;;
54539;SDS011;40438;52.992;18.604;2024-01-25T10:07:35;2.75;;;0.68;;
54539;SDS011;40438;52.992;18.604;2024-01-25T10:10:01;4.55;;;1.00;;
54539;SDS011;40438;52.992;18.604;2024-01-25T10:12:27;3.05;;;0.70;;
54539;SDS011;40438;52.992;18.604;2024-01-25T10:14:53;4.80;;;0.80;;
54539;SDS011;40438;52.992;18.604;2024-01-25T10:17:19;5.75;;;1.17;;
54539;SDS011;40438;52.992;18.604;2024-01-25T10:19:46;1.75;;;0.70;;
54539;SDS011;40438;52.992;18.604;2024-01-25T10:22:12;5.50;;;1.10;;
54539;SDS011;40438;52.992;18.604;2024-01-25T10:24:38;1.88;;;1.05;;
54539;SDS011;40438;52.992;18.604;2024-01-25T10:27:05;2.53;;;0.52;;
54539;SDS011;40438;52.992;18.604;2024-01-25T10:29:32;5.82;;;0.77;;
54539;SDS011;40438;52.992;18.604;2024-01-25T10:31:59;4.00;;;1.27;;
54539;SDS011;40438;52.992;18.604;2024-01-25T10:34:26;5.18;;;0.80;;
54539;SDS011;40438;52.992;18.604;2024-01-25T10:36:55;3.03;;;0.85;;
54539;SDS011;40438;52.992;18.604;2024-01-25T10:39:22;10.27;;;1.33;;
54539;SDS011;40438;52.992;18.604;2024-01-25T10:41:49;7.28;;;1.42;;
54539;SDS011;40438;52.992;18.604;2024-01-25T10:44:15;4.50;;;1.10;;
54539;SDS011;40438;52.992;18.604;2024-01-25T10:46:41;3.65;;;1.02;;
54539;SDS011;40438;52.992;18.604;2024-01-25T10:49:09;6.70;;;1.15;;
54539;SDS011;40438;52.992;18.604;2024-01-25T10:51:35;10.18;;;1.23;;
54539;SDS011;40438;52.992;18.604;2024-01-25T10:54:02;6.68;;;1.17;;
54539;SDS011;40438;52.992;18.604;2024-01-25T10:56:28;4.15;;;0.93;;
54539;SDS011;40438;52.992;18.604;2024-01-25T10:58:54;4.95;;;1.25;;
54539;SDS011;40438;52.992;18.604;2024-01-25T11:01:20;4.72;;;0.85;;
54539;SDS011;40438;52.992;18.604;2024-01-25T11:03:46;6.40;;;1.52;;
54539;SDS011;40438;52.992;18.604;2024-01-25T11:06:12;5.20;;;1.00;;
54539;SDS011;40438;52.992;18.604;2024-01-25T11:08:39;4.97;;;1.60;;
54539;SDS011;40438;52.992;18.604;2024-01-25T11:11:07;2.70;;;1.30;;
54539;SDS011;40438;52.992;18.604;2024-01-25T11:13:34;5.78;;;1.25;;
54539;SDS011;40438;52.992;18.604;2024-01-25T11:16:10;7.40;;;0.85;;
54539;SDS011;40438;52.992;18.604;2024-01-25T11:18:46;3.35;;;0.75;;
54539;SDS011;40438;52.992;18.604;2024-01-25T11:21:21;1.75;;;0.70;;
54539;SDS011;40438;52.992;18.604;2024-01-25T11:23:47;9.85;;;1.27;;
54539;SDS011;40438;52.992;18.604;2024-01-25T11:26:15;2.38;;;0.63;;
54539;SDS011;40438;52.992;18.604;2024-01-25T11:28:40;3.30;;;0.93;;
54539;SDS011;40438;52.992;18.604;2024-01-25T11:31:06;6.57;;;1.58;;
54539;SDS011;40438;52.992;18.604;2024-01-25T11:33:32;6.45;;;1.25;;
54539;SDS011;40438;52.992;18.604;2024-01-25T11:36:00;3.72;;;1.20;;
54539;SDS011;40438;52.992;18.604;2024-01-25T11:38:26;3.55;;;1.20;;
54539;SDS011;40438;52.992;18.604;2024-01-25T11:40:52;3.33;;;1.13;;
54539;SDS011;40438;52.992;18.604;2024-01-25T11:43:23;2.35;;;1.00;;
54539;SDS011;40438;52.992;18.604;2024-01-25T11:45:49;2.78;;;1.30;;
54539;SDS011;40438;52.992;18.604;2024-01-25T11:48:15;5.13;;;2.40;;
54539;SDS011;40438;52.992;18.604;2024-01-25T11:50:43;4.13;;;1.83;;
54539;SDS011;40438;52.992;18.604;2024-01-25T11:53:09;7.03;;;1.23;;
54539;SDS011;40438;52.992;18.604;2024-01-25T11:55:35;7.40;;;1.08;;
54539;SDS011;40438;52.992;18.604;2024-01-25T11:58:01;5.70;;;1.55;;
54539;SDS011;40438;52.992;18.604;2024-01-25T12:00:29;7.95;;;2.35;;
54539;SDS011;40438;52.992;18.604;2024-01-25T12:02:55;7.28;;;2.58;;
54539;SDS011;40438;52.992;18.604;2024-01-25T12:05:21;10.98;;;3.22;;
54539;SDS011;40438;52.992;18.604;2024-01-25T12:07:47;5.85;;;2.10;;
54539;SDS011;40438;52.992;18.604;2024-01-25T12:10:15;2.75;;;1.50;;
54539;SDS011;40438;52.992;18.604;2024-01-25T12:12:41;3.60;;;0.98;;
54539;SDS011;40438;52.992;18.604;2024-01-25T12:15:07;3.33;;;1.50;;
54539;SDS011;40438;52.992;18.604;2024-01-25T12:17:35;4.90;;;1.00;;
54539;SDS011;40438;52.992;18.604;2024-01-25T12:20:01;2.38;;;1.05;;
54539;SDS011;40438;52.992;18.604;2024-01-25T12:22:27;2.72;;;1.05;;
54539;SDS011;40438;52.992;18.604;2024-01-25T12:24:53;3.83;;;1.30;;
54539;SDS011;40438;52.992;18.604;2024-01-25T12:27:20;11.98;;;2.33;;
54539;SDS011;40438;52.992;18.604;2024-01-25T12:29:45;4.45;;;1.73;;
54539;SDS011;40438;52.992;18.604;2024-01-25T12:32:11;1.73;;;1.30;;
54539;SDS011;40438;52.992;18.604;2024-01-25T12:34:38;4.65;;;1.30;;
54539;SDS011;40438;52.992;18.604;2024-01-25T12:37:04;5.75;;;1.73;;
54539;SDS011;40438;52.992;18.604;2024-01-25T12:39:30;8.57;;;1.90;;
54539;SDS011;40438;52.992;18.604;2024-01-25T12:41:56;6.72;;;2.03;;
54539;SDS011;40438;52.992;18.604;2024-01-25T12:44:22;5.00;;;1.90;;
54539;SDS011;40438;52.992;18.604;2024-01-25T12:46:47;2.63;;;2.08;;
54539;SDS011;40438;52.992;18.604;2024-01-25T12:49:13;3.58;;;0.95;;
54539;SDS011;40438;52.992;18.604;2024-01-25T12:51:40;1.92;;;0.90;;
54539;SDS011;40438;52.992;18.604;2024-01-25T12:54:06;5.30;;;1.30;;
54539;SDS011;40438;52.992;18.604;2024-01-25T12:56:32;4.28;;;1.30;;
54539;SDS011;40438;52.992;18.604;2024-01-25T12:58:58;2.67;;;0.93;;
54539;SDS011;40438;52.992;18.604;2024-01-25T13:01:24;2.92;;;1.40;;
54539;SDS011;40438;52.992;18.604;2024-01-25T13:03:50;5.10;;;1.08;;
54539;SDS011;40438;52.992;18.604;2024-01-25T13:06:16;3.88;;;1.17;;
54539;SDS011;40438;52.992;18.604;2024-01-25T13:08:43;1.30;;;0.80;;
54539;SDS011;40438;52.992;18.604;2024-01-25T13:11:11;6.78;;;1.75;;
54539;SDS011;40438;52.992;18.604;2024-01-25T13:13:36;9.38;;;2.40;;
54539;SDS011;40438;52.992;18.604;2024-01-25T13:16:02;8.75;;;2.58;;
54539;SDS011;40438;52.992;18.604;2024-01-25T13:18:29;3.55;;;1.25;;
54539;SDS011;40438;52.992;18.604;2024-01-25T13:20:54;1.48;;;1.08;;
54539;SDS011;40438;52.992;18.604;2024-01-25T13:23:20;4.85;;;1.10;;
54539;SDS011;40438;52.992;18.604;2024-01-25T13:25:47;3.28;;;1.25;;
54539;SDS011;40438;52.992;18.604;2024-01-25T13:28:13;2.60;;;1.65;;
54539;SDS011;40438;52.992;18.604;2024-01-25T13:30:39;3.75;;;1.42;;
54539;SDS011;40438;52.992;18.604;2024-01-25T13:33:05;2.67;;;1.45;;
54539;SDS011;40438;52.992;18.604;2024-01-25T13:35:30;2.15;;;1.05;;
54539;SDS011;40438;52.992;18.604;2024-01-25T13:37:56;1.30;;;0.90;;
54539;SDS011;40438;52.992;18.604;2024-01-25T13:40:22;2.15;;;1.25;;
54539;SDS011;40438;52.992;18.604;2024-01-25T13:42:50;2.10;;;1.08;;
54539;SDS011;40438;52.992;18.604;2024-01-25T13:45:16;1.88;;;1.23;;
54539;SDS011;40438;52.992;18.604;2024-01-25T13:47:42;2.28;;;1.20;;
54539;SDS011;40438;52.992;18.604;2024-01-25T13:50:08;4.45;;;1.52;;
54539;SDS011;40438;52.992;18.604;2024-01-25T13:52:34;2.60;;;1.38;;
54539;SDS011;40438;52.992;18.604;2024-01-25T13:54:59;3.10;;;1.23;;
54539;SDS011;40438;52.992;18.604;2024-01-25T13:57:25;4.03;;;1.80;;
54539;SDS011;40438;52.992;18.604;2024-01-25T13:59:52;4.55;;;1.90;;
54539;SDS011;40438;52.992;18.604;2024-01-25T14:02:18;6.85;;;2.95;;
54539;SDS011;40438;52.992;18.604;2024-01-25T14:04:44;3.47;;;1.30;;
54539;SDS011;40438;52.992;18.604;2024-01-25T14:07:10;4.00;;;1.30;;
54539;SDS011;40438;52.992;18.604;2024-01-25T14:09:35;2.65;;;1.30;;
54539;SDS011;40438;52.992;18.604;2024-01-25T14:12:01;3.65;;;1.42;;
54539;SDS011;40438;52.992;18.604;2024-01-25T14:14:28;6.53;;;1.70;;
54539;SDS011;40438;52.992;18.604;2024-01-25T14:16:55;3.33;;;1.13;;
54539;SDS011;40438;52.992;18.604;2024-01-25T14:19:21;6.78;;;2.03;;
54539;SDS011;40438;52.992;18.604;2024-01-25T14:21:46;3.22;;;1.45;;
54539;SDS011;40438;52.992;18.604;2024-01-25T14:24:12;3.67;;;1.13;;
54539;SDS011;40438;52.992;18.604;2024-01-25T14:26:38;3.13;;;1.05;;